Portada
METAR-TAF:

METAR-TAF

Aeropuertos :

Aeropuerto Internacional de Pohnpei

Pohnpei, Micronesia

latitud: 06-59N, longitud: 158-12E, altitud: 2 m

Observación

El informe se hizo hace 57 minutos, a las 18:50 UTC
Viento 5 kt del sur
Temperatura 25°C
Humedad 89%
Presión 1011 hPa
Visibilidad: 24.1 km
Cielo nuboso a una altura de 1800 ft, Cumulus congestus.
Cielo cubierto a una altura de 30000 ft

METAR: PTPN 211850Z 18005KT 15SM BKN018TCU OVC300 25/23 A2985 RMK TCU S

Hora: 06:47 (19:47 UTC)

Pronóstico

El informe se hizo hace 26 minutos, a las 19:21 UTC
Pronóstico válido del 21 a las 19 UTC al 22 a las 18 UTC
Viento 6 kt del sur
Visibilidad: 10 km
Nubes dispersas a una altura de 2000 ft
chaparrones en las proximidades
Temporalmente
del 21 a las 19 UTC al 21 a las 22 UTC
Cielo nuboso a una altura de 1800 ft
chaparrones de lluvia

TAF: PTPN 211921Z 2119/2218 17006KT P6SM VCSH SCT020 TEMPO 2119/2122 -SHRA BKN018

Observaciones y pronósticos meteorológicos de más de 4000 aeropuertos (mensajes METAR y TAF).

Los puntos amarillos y rojos representan las estaciones disponibles.

Ponga el ratón en el punto deseado para ver el nombre de la estación.

Haga clic para ver las observaciones y los pronósticos meteorológicos.

Para cambiar el mapa : haga clic en los botones verdes con una cruz de color negro para hacer un zoom, en el botón verde con un guión para alejar o en las flechas verdes para mapas adyacentes.


METAR-TAF: